sensor_id;sensor_type;location;lat;lon;timestamp;P1;durP1;ratioP1;P2;durP2;ratioP2
44304;SDS011;30019;50.576;8.568;2023-04-21T00:00:50;60.95;;;27.83;;
44304;SDS011;30019;50.576;8.568;2023-04-21T00:03:17;62.95;;;28.45;;
44304;SDS011;30019;50.576;8.568;2023-04-21T00:05:45;61.00;;;27.67;;
44304;SDS011;30019;50.576;8.568;2023-04-21T00:08:11;69.47;;;28.92;;
44304;SDS011;30019;50.576;8.568;2023-04-21T00:10:36;66.80;;;28.52;;
44304;SDS011;30019;50.576;8.568;2023-04-21T00:13:02;67.65;;;28.25;;
44304;SDS011;30019;50.576;8.568;2023-04-21T00:15:27;72.93;;;29.55;;
44304;SDS011;30019;50.576;8.568;2023-04-21T00:17:53;70.00;;;29.10;;
44304;SDS011;30019;50.576;8.568;2023-04-21T00:20:18;68.00;;;29.33;;
44304;SDS011;30019;50.576;8.568;2023-04-21T00:22:44;68.50;;;30.40;;
44304;SDS011;30019;50.576;8.568;2023-04-21T00:25:10;75.55;;;29.65;;
44304;SDS011;30019;50.576;8.568;2023-04-21T00:27:35;71.97;;;30.45;;
44304;SDS011;30019;50.576;8.568;2023-04-21T00:30:01;74.97;;;30.65;;
44304;SDS011;30019;50.576;8.568;2023-04-21T00:32:26;74.07;;;30.00;;
44304;SDS011;30019;50.576;8.568;2023-04-21T00:34:52;74.30;;;31.12;;
44304;SDS011;30019;50.576;8.568;2023-04-21T00:37:17;74.55;;;30.15;;
44304;SDS011;30019;50.576;8.568;2023-04-21T00:39:43;82.93;;;31.05;;
44304;SDS011;30019;50.576;8.568;2023-04-21T00:42:08;75.78;;;31.70;;
44304;SDS011;30019;50.576;8.568;2023-04-21T00:44:34;72.50;;;29.40;;
44304;SDS011;30019;50.576;8.568;2023-04-21T00:47:00;73.82;;;30.77;;
44304;SDS011;30019;50.576;8.568;2023-04-21T00:49:25;76.03;;;30.70;;
44304;SDS011;30019;50.576;8.568;2023-04-21T00:51:51;73.72;;;30.60;;
44304;SDS011;30019;50.576;8.568;2023-04-21T00:54:18;71.45;;;29.60;;
44304;SDS011;30019;50.576;8.568;2023-04-21T00:56:45;76.80;;;29.58;;
44304;SDS011;30019;50.576;8.568;2023-04-21T00:59:10;69.20;;;29.60;;
44304;SDS011;30019;50.576;8.568;2023-04-21T01:01:36;71.45;;;31.12;;
44304;SDS011;30019;50.576;8.568;2023-04-21T01:04:03;70.28;;;29.60;;
44304;SDS011;30019;50.576;8.568;2023-04-21T01:06:30;67.03;;;30.58;;
44304;SDS011;30019;50.576;8.568;2023-04-21T01:08:58;65.15;;;29.92;;
44304;SDS011;30019;50.576;8.568;2023-04-21T01:11:23;71.65;;;29.52;;
44304;SDS011;30019;50.576;8.568;2023-04-21T01:13:52;65.95;;;29.40;;
44304;SDS011;30019;50.576;8.568;2023-04-21T01:16:21;66.28;;;28.48;;
44304;SDS011;30019;50.576;8.568;2023-04-21T01:18:47;70.50;;;28.67;;
44304;SDS011;30019;50.576;8.568;2023-04-21T01:21:14;67.62;;;28.62;;
44304;SDS011;30019;50.576;8.568;2023-04-21T01:23:41;63.30;;;27.52;;
44304;SDS011;30019;50.576;8.568;2023-04-21T01:26:07;64.95;;;29.95;;
44304;SDS011;30019;50.576;8.568;2023-04-21T01:28:33;69.82;;;30.70;;
44304;SDS011;30019;50.576;8.568;2023-04-21T01:30:58;73.80;;;30.37;;
44304;SDS011;30019;50.576;8.568;2023-04-21T01:33:25;75.28;;;30.37;;
44304;SDS011;30019;50.576;8.568;2023-04-21T01:35:50;67.93;;;28.92;;
44304;SDS011;30019;50.576;8.568;2023-04-21T01:38:16;72.87;;;29.00;;
44304;SDS011;30019;50.576;8.568;2023-04-21T01:40:43;68.45;;;30.33;;
44304;SDS011;30019;50.576;8.568;2023-04-21T01:43:13;75.35;;;31.08;;
44304;SDS011;30019;50.576;8.568;2023-04-21T01:45:39;75.12;;;31.05;;
44304;SDS011;30019;50.576;8.568;2023-04-21T01:48:05;80.82;;;31.35;;
44304;SDS011;30019;50.576;8.568;2023-04-21T01:50:31;80.22;;;31.42;;
44304;SDS011;30019;50.576;8.568;2023-04-21T01:52:56;77.05;;;30.65;;
44304;SDS011;30019;50.576;8.568;2023-04-21T01:55:22;72.70;;;28.80;;
44304;SDS011;30019;50.576;8.568;2023-04-21T01:57:48;78.75;;;29.42;;
44304;SDS011;30019;50.576;8.568;2023-04-21T02:00:13;70.55;;;29.50;;
44304;SDS011;30019;50.576;8.568;2023-04-21T02:02:39;80.20;;;31.10;;
44304;SDS011;30019;50.576;8.568;2023-04-21T02:05:05;80.50;;;31.00;;
44304;SDS011;30019;50.576;8.568;2023-04-21T02:07:31;72.65;;;30.40;;
44304;SDS011;30019;50.576;8.568;2023-04-21T02:09:56;76.75;;;30.30;;
44304;SDS011;30019;50.576;8.568;2023-04-21T02:12:22;78.15;;;30.10;;
44304;SDS011;30019;50.576;8.568;2023-04-21T02:14:47;71.03;;;29.15;;
44304;SDS011;30019;50.576;8.568;2023-04-21T02:17:13;77.93;;;31.03;;
44304;SDS011;30019;50.576;8.568;2023-04-21T02:19:39;72.22;;;30.92;;
44304;SDS011;30019;50.576;8.568;2023-04-21T02:22:05;76.97;;;29.77;;
44304;SDS011;30019;50.576;8.568;2023-04-21T02:24:32;77.68;;;32.08;;
44304;SDS011;30019;50.576;8.568;2023-04-21T02:26:58;79.05;;;30.98;;
44304;SDS011;30019;50.576;8.568;2023-04-21T02:29:24;81.80;;;31.50;;
44304;SDS011;30019;50.576;8.568;2023-04-21T02:31:49;80.57;;;30.83;;
44304;SDS011;30019;50.576;8.568;2023-04-21T02:34:15;74.93;;;31.25;;
44304;SDS011;30019;50.576;8.568;2023-04-21T02:36:40;80.47;;;30.85;;
44304;SDS011;30019;50.576;8.568;2023-04-21T02:39:06;78.43;;;30.85;;
44304;SDS011;30019;50.576;8.568;2023-04-21T02:41:31;80.57;;;31.08;;
44304;SDS011;30019;50.576;8.568;2023-04-21T02:43:57;85.50;;;31.85;;
44304;SDS011;30019;50.576;8.568;2023-04-21T02:46:23;76.03;;;30.58;;
44304;SDS011;30019;50.576;8.568;2023-04-21T02:48:48;84.15;;;31.85;;
44304;SDS011;30019;50.576;8.568;2023-04-21T02:51:14;86.18;;;32.90;;
44304;SDS011;30019;50.576;8.568;2023-04-21T02:53:40;81.87;;;30.88;;
44304;SDS011;30019;50.576;8.568;2023-04-21T02:56:06;78.72;;;31.12;;
44304;SDS011;30019;50.576;8.568;2023-04-21T02:58:35;80.22;;;31.98;;
44304;SDS011;30019;50.576;8.568;2023-04-21T03:01:01;73.15;;;31.23;;
44304;SDS011;30019;50.576;8.568;2023-04-21T03:03:28;72.95;;;29.83;;
44304;SDS011;30019;50.576;8.568;2023-04-21T03:05:57;73.75;;;31.25;;
44304;SDS011;30019;50.576;8.568;2023-04-21T03:08:24;67.30;;;29.63;;
44304;SDS011;30019;50.576;8.568;2023-04-21T03:10:50;75.22;;;31.08;;
44304;SDS011;30019;50.576;8.568;2023-04-21T03:13:16;70.68;;;29.30;;
44304;SDS011;30019;50.576;8.568;2023-04-21T03:15:41;75.50;;;30.15;;
44304;SDS011;30019;50.576;8.568;2023-04-21T03:18:07;71.93;;;29.83;;
44304;SDS011;30019;50.576;8.568;2023-04-21T03:20:33;69.72;;;29.95;;
44304;SDS011;30019;50.576;8.568;2023-04-21T03:22:58;86.97;;;31.65;;
44304;SDS011;30019;50.576;8.568;2023-04-21T03:25:24;78.07;;;30.35;;
44304;SDS011;30019;50.576;8.568;2023-04-21T03:30:24;78.53;;;31.77;;
44304;SDS011;30019;50.576;8.568;2023-04-21T03:32:50;78.00;;;31.60;;
44304;SDS011;30019;50.576;8.568;2023-04-21T03:35:16;70.22;;;29.67;;
44304;SDS011;30019;50.576;8.568;2023-04-21T03:37:42;72.35;;;30.15;;
44304;SDS011;30019;50.576;8.568;2023-04-21T03:40:08;72.55;;;31.17;;
44304;SDS011;30019;50.576;8.568;2023-04-21T03:42:34;62.35;;;28.50;;
44304;SDS011;30019;50.576;8.568;2023-04-21T03:45:03;72.35;;;30.92;;
44304;SDS011;30019;50.576;8.568;2023-04-21T03:47:31;71.07;;;28.90;;
44304;SDS011;30019;50.576;8.568;2023-04-21T03:49:56;67.43;;;29.75;;
44304;SDS011;30019;50.576;8.568;2023-04-21T03:52:22;71.68;;;29.27;;
44304;SDS011;30019;50.576;8.568;2023-04-21T03:54:48;79.40;;;31.58;;
44304;SDS011;30019;50.576;8.568;2023-04-21T03:57:14;77.95;;;32.47;;
44304;SDS011;30019;50.576;8.568;2023-04-21T03:59:39;67.62;;;31.25;;
44304;SDS011;30019;50.576;8.568;2023-04-21T04:02:05;78.62;;;30.88;;
44304;SDS011;30019;50.576;8.568;2023-04-21T04:04:31;71.75;;;29.58;;
44304;SDS011;30019;50.576;8.568;2023-04-21T04:06:56;79.57;;;31.27;;
44304;SDS011;30019;50.576;8.568;2023-04-21T04:09:22;68.32;;;28.90;;
44304;SDS011;30019;50.576;8.568;2023-04-21T04:11:48;73.10;;;30.60;;
44304;SDS011;30019;50.576;8.568;2023-04-21T04:14:13;72.80;;;31.27;;
44304;SDS011;30019;50.576;8.568;2023-04-21T04:16:39;69.07;;;30.20;;
44304;SDS011;30019;50.576;8.568;2023-04-21T04:19:05;74.30;;;31.33;;
44304;SDS011;30019;50.576;8.568;2023-04-21T04:21:31;80.12;;;31.23;;
44304;SDS011;30019;50.576;8.568;2023-04-21T04:23:57;75.65;;;30.37;;
44304;SDS011;30019;50.576;8.568;2023-04-21T04:26:23;75.60;;;31.58;;
44304;SDS011;30019;50.576;8.568;2023-04-21T04:28:49;78.15;;;30.58;;
44304;SDS011;30019;50.576;8.568;2023-04-21T04:31:20;67.85;;;29.58;;
44304;SDS011;30019;50.576;8.568;2023-04-21T04:33:46;72.93;;;31.52;;
44304;SDS011;30019;50.576;8.568;2023-04-21T04:36:12;71.45;;;31.33;;
44304;SDS011;30019;50.576;8.568;2023-04-21T04:38:38;78.43;;;30.98;;
44304;SDS011;30019;50.576;8.568;2023-04-21T04:41:04;68.85;;;30.45;;
44304;SDS011;30019;50.576;8.568;2023-04-21T04:43:30;70.93;;;31.42;;
44304;SDS011;30019;50.576;8.568;2023-04-21T04:46:00;68.25;;;30.02;;
44304;SDS011;30019;50.576;8.568;2023-04-21T04:48:28;70.82;;;30.73;;
44304;SDS011;30019;50.576;8.568;2023-04-21T04:50:54;77.53;;;31.05;;
44304;SDS011;30019;50.576;8.568;2023-04-21T04:53:20;75.25;;;31.52;;
44304;SDS011;30019;50.576;8.568;2023-04-21T04:55:45;78.37;;;31.23;;
44304;SDS011;30019;50.576;8.568;2023-04-21T04:58:11;73.20;;;30.15;;
44304;SDS011;30019;50.576;8.568;2023-04-21T05:00:37;80.53;;;31.12;;
44304;SDS011;30019;50.576;8.568;2023-04-21T05:03:03;66.82;;;29.40;;
44304;SDS011;30019;50.576;8.568;2023-04-21T05:05:29;74.60;;;30.98;;
44304;SDS011;30019;50.576;8.568;2023-04-21T05:07:54;82.93;;;31.30;;
44304;SDS011;30019;50.576;8.568;2023-04-21T05:10:20;77.85;;;31.15;;
44304;SDS011;30019;50.576;8.568;2023-04-21T05:12:46;68.82;;;30.15;;
44304;SDS011;30019;50.576;8.568;2023-04-21T05:15:11;72.28;;;30.50;;
44304;SDS011;30019;50.576;8.568;2023-04-21T05:17:37;71.87;;;30.98;;
44304;SDS011;30019;50.576;8.568;2023-04-21T05:20:03;68.87;;;30.05;;
44304;SDS011;30019;50.576;8.568;2023-04-21T05:22:29;73.28;;;30.40;;
44304;SDS011;30019;50.576;8.568;2023-04-21T05:24:55;68.10;;;30.10;;
44304;SDS011;30019;50.576;8.568;2023-04-21T05:27:20;68.62;;;31.02;;
44304;SDS011;30019;50.576;8.568;2023-04-21T05:29:46;68.47;;;29.87;;
44304;SDS011;30019;50.576;8.568;2023-04-21T05:32:12;66.60;;;30.67;;
44304;SDS011;30019;50.576;8.568;2023-04-21T05:34:37;65.30;;;29.90;;
44304;SDS011;30019;50.576;8.568;2023-04-21T05:37:03;62.95;;;30.52;;
44304;SDS011;30019;50.576;8.568;2023-04-21T05:39:29;61.67;;;29.73;;
44304;SDS011;30019;50.576;8.568;2023-04-21T05:41:54;65.40;;;29.25;;
44304;SDS011;30019;50.576;8.568;2023-04-21T05:44:20;62.25;;;28.92;;
44304;SDS011;30019;50.576;8.568;2023-04-21T05:46:46;60.08;;;28.95;;
44304;SDS011;30019;50.576;8.568;2023-04-21T05:49:11;62.90;;;29.42;;
44304;SDS011;30019;50.576;8.568;2023-04-21T05:51:37;68.32;;;30.30;;
44304;SDS011;30019;50.576;8.568;2023-04-21T05:54:03;62.60;;;30.15;;
44304;SDS011;30019;50.576;8.568;2023-04-21T05:56:28;58.75;;;29.45;;
44304;SDS011;30019;50.576;8.568;2023-04-21T05:58:54;65.37;;;30.10;;
44304;SDS011;30019;50.576;8.568;2023-04-21T06:01:19;62.55;;;28.83;;
44304;SDS011;30019;50.576;8.568;2023-04-21T06:03:45;62.35;;;29.00;;
44304;SDS011;30019;50.576;8.568;2023-04-21T06:06:13;57.62;;;29.60;;
44304;SDS011;30019;50.576;8.568;2023-04-21T06:08:39;61.67;;;27.45;;
44304;SDS011;30019;50.576;8.568;2023-04-21T06:11:05;56.10;;;29.85;;
44304;SDS011;30019;50.576;8.568;2023-04-21T06:13:30;57.65;;;29.15;;
44304;SDS011;30019;50.576;8.568;2023-04-21T06:15:56;59.05;;;28.92;;
44304;SDS011;30019;50.576;8.568;2023-04-21T06:18:22;60.72;;;29.27;;
44304;SDS011;30019;50.576;8.568;2023-04-21T06:20:51;56.63;;;28.12;;
44304;SDS011;30019;50.576;8.568;2023-04-21T06:23:17;53.53;;;27.85;;
44304;SDS011;30019;50.576;8.568;2023-04-21T06:25:43;57.78;;;29.33;;
44304;SDS011;30019;50.576;8.568;2023-04-21T06:28:09;57.80;;;27.65;;
44304;SDS011;30019;50.576;8.568;2023-04-21T06:30:34;56.13;;;28.50;;
44304;SDS011;30019;50.576;8.568;2023-04-21T06:33:00;54.55;;;26.70;;
44304;SDS011;30019;50.576;8.568;2023-04-21T06:35:26;56.22;;;27.85;;
44304;SDS011;30019;50.576;8.568;2023-04-21T06:40:17;60.80;;;29.77;;
44304;SDS011;30019;50.576;8.568;2023-04-21T06:42:42;48.92;;;26.62;;
44304;SDS011;30019;50.576;8.568;2023-04-21T06:45:08;50.75;;;25.77;;
44304;SDS011;30019;50.576;8.568;2023-04-21T06:47:34;55.38;;;28.45;;
44304;SDS011;30019;50.576;8.568;2023-04-21T06:50:00;51.05;;;27.92;;
44304;SDS011;30019;50.576;8.568;2023-04-21T06:52:26;51.80;;;26.85;;
44304;SDS011;30019;50.576;8.568;2023-04-21T06:54:51;54.20;;;27.80;;
44304;SDS011;30019;50.576;8.568;2023-04-21T06:57:17;49.90;;;27.17;;
44304;SDS011;30019;50.576;8.568;2023-04-21T06:59:42;46.37;;;25.42;;
44304;SDS011;30019;50.576;8.568;2023-04-21T07:02:08;51.17;;;27.17;;
44304;SDS011;30019;50.576;8.568;2023-04-21T07:04:34;49.78;;;27.30;;
44304;SDS011;30019;50.576;8.568;2023-04-21T07:06:59;59.63;;;31.23;;
44304;SDS011;30019;50.576;8.568;2023-04-21T07:09:25;70.00;;;38.00;;
44304;SDS011;30019;50.576;8.568;2023-04-21T07:11:52;51.70;;;28.77;;
44304;SDS011;30019;50.576;8.568;2023-04-21T07:14:19;48.87;;;27.15;;
44304;SDS011;30019;50.576;8.568;2023-04-21T07:16:44;48.42;;;26.55;;
44304;SDS011;30019;50.576;8.568;2023-04-21T07:19:10;44.90;;;24.10;;
44304;SDS011;30019;50.576;8.568;2023-04-21T07:21:35;47.08;;;24.35;;
44304;SDS011;30019;50.576;8.568;2023-04-21T07:24:01;40.95;;;24.17;;
44304;SDS011;30019;50.576;8.568;2023-04-21T07:26:27;49.47;;;24.83;;
44304;SDS011;30019;50.576;8.568;2023-04-21T07:28:53;44.60;;;24.25;;
44304;SDS011;30019;50.576;8.568;2023-04-21T07:31:22;47.78;;;26.37;;
44304;SDS011;30019;50.576;8.568;2023-04-21T07:33:50;42.35;;;25.30;;
44304;SDS011;30019;50.576;8.568;2023-04-21T07:36:16;49.33;;;25.70;;
44304;SDS011;30019;50.576;8.568;2023-04-21T07:38:42;48.67;;;25.50;;
44304;SDS011;30019;50.576;8.568;2023-04-21T07:41:09;44.92;;;25.08;;
44304;SDS011;30019;50.576;8.568;2023-04-21T07:43:35;46.88;;;25.08;;
44304;SDS011;30019;50.576;8.568;2023-04-21T07:46:01;44.17;;;25.62;;
44304;SDS011;30019;50.576;8.568;2023-04-21T07:48:27;42.00;;;23.83;;
44304;SDS011;30019;50.576;8.568;2023-04-21T07:50:53;41.13;;;22.42;;
44304;SDS011;30019;50.576;8.568;2023-04-21T07:53:18;42.05;;;22.90;;
44304;SDS011;30019;50.576;8.568;2023-04-21T07:55:44;47.33;;;24.77;;
44304;SDS011;30019;50.576;8.568;2023-04-21T07:58:09;41.20;;;23.25;;
44304;SDS011;30019;50.576;8.568;2023-04-21T08:00:35;36.75;;;22.20;;
44304;SDS011;30019;50.576;8.568;2023-04-21T08:03:01;37.95;;;22.62;;
44304;SDS011;30019;50.576;8.568;2023-04-21T08:05:26;35.50;;;21.60;;
44304;SDS011;30019;50.576;8.568;2023-04-21T08:07:53;36.83;;;22.27;;
44304;SDS011;30019;50.576;8.568;2023-04-21T08:10:18;38.80;;;21.85;;
44304;SDS011;30019;50.576;8.568;2023-04-21T08:12:44;35.55;;;21.98;;
44304;SDS011;30019;50.576;8.568;2023-04-21T08:15:10;37.35;;;20.25;;
44304;SDS011;30019;50.576;8.568;2023-04-21T08:17:36;34.90;;;21.23;;
44304;SDS011;30019;50.576;8.568;2023-04-21T08:20:02;33.92;;;20.55;;
44304;SDS011;30019;50.576;8.568;2023-04-21T08:22:29;31.55;;;20.70;;
44304;SDS011;30019;50.576;8.568;2023-04-21T08:24:55;31.27;;;19.50;;
44304;SDS011;30019;50.576;8.568;2023-04-21T08:27:20;30.02;;;20.35;;
44304;SDS011;30019;50.576;8.568;2023-04-21T08:29:48;33.17;;;20.92;;
44304;SDS011;30019;50.576;8.568;2023-04-21T08:32:15;32.47;;;20.50;;
44304;SDS011;30019;50.576;8.568;2023-04-21T08:34:46;32.05;;;20.10;;
44304;SDS011;30019;50.576;8.568;2023-04-21T08:37:13;34.70;;;21.25;;
44304;SDS011;30019;50.576;8.568;2023-04-21T08:39:38;34.08;;;21.12;;
44304;SDS011;30019;50.576;8.568;2023-04-21T08:42:04;36.30;;;21.45;;
44304;SDS011;30019;50.576;8.568;2023-04-21T08:44:33;33.42;;;21.50;;
44304;SDS011;30019;50.576;8.568;2023-04-21T08:46:58;32.45;;;20.42;;
44304;SDS011;30019;50.576;8.568;2023-04-21T08:49:25;29.80;;;18.15;;
44304;SDS011;30019;50.576;8.568;2023-04-21T08:51:54;33.50;;;19.90;;
44304;SDS011;30019;50.576;8.568;2023-04-21T08:54:20;29.45;;;18.85;;
44304;SDS011;30019;50.576;8.568;2023-04-21T08:56:49;32.10;;;19.80;;
44304;SDS011;30019;50.576;8.568;2023-04-21T09:04:43;26.55;;;17.30;;
44304;SDS011;30019;50.576;8.568;2023-04-21T09:07:10;25.27;;;17.00;;
44304;SDS011;30019;50.576;8.568;2023-04-21T09:09:52;26.15;;;16.60;;
44304;SDS011;30019;50.576;8.568;2023-04-21T09:12:19;27.65;;;18.80;;
44304;SDS011;30019;50.576;8.568;2023-04-21T09:14:45;26.08;;;17.10;;
44304;SDS011;30019;50.576;8.568;2023-04-21T09:17:10;26.37;;;17.45;;
44304;SDS011;30019;50.576;8.568;2023-04-21T09:19:36;29.12;;;17.55;;
44304;SDS011;30019;50.576;8.568;2023-04-21T09:22:02;23.60;;;16.50;;
44304;SDS011;30019;50.576;8.568;2023-04-21T09:24:28;28.83;;;17.75;;
44304;SDS011;30019;50.576;8.568;2023-04-21T09:26:54;28.58;;;17.58;;
44304;SDS011;30019;50.576;8.568;2023-04-21T09:29:23;29.02;;;18.20;;
44304;SDS011;30019;50.576;8.568;2023-04-21T09:31:50;28.00;;;18.17;;
44304;SDS011;30019;50.576;8.568;2023-04-21T09:34:17;25.00;;;16.87;;
44304;SDS011;30019;50.576;8.568;2023-04-21T09:36:44;24.30;;;17.15;;
44304;SDS011;30019;50.576;8.568;2023-04-21T09:39:10;26.15;;;17.42;;
44304;SDS011;30019;50.576;8.568;2023-04-21T09:41:36;26.17;;;16.92;;
44304;SDS011;30019;50.576;8.568;2023-04-21T09:44:02;25.20;;;16.87;;
44304;SDS011;30019;50.576;8.568;2023-04-21T09:46:33;23.60;;;16.70;;
44304;SDS011;30019;50.576;8.568;2023-04-21T09:49:00;23.87;;;16.67;;
44304;SDS011;30019;50.576;8.568;2023-04-21T09:51:26;35.97;;;19.55;;
44304;SDS011;30019;50.576;8.568;2023-04-21T09:53:58;28.55;;;17.73;;
44304;SDS011;30019;50.576;8.568;2023-04-21T09:56:28;23.73;;;16.33;;
44304;SDS011;30019;50.576;8.568;2023-04-21T09:58:59;24.55;;;16.67;;
44304;SDS011;30019;50.576;8.568;2023-04-21T10:01:26;28.62;;;17.30;;
44304;SDS011;30019;50.576;8.568;2023-04-21T10:03:54;24.95;;;16.85;;
44304;SDS011;30019;50.576;8.568;2023-04-21T10:06:20;29.70;;;17.27;;
44304;SDS011;30019;50.576;8.568;2023-04-21T10:08:47;26.02;;;15.90;;
44304;SDS011;30019;50.576;8.568;2023-04-21T10:13:39;25.05;;;15.80;;
44304;SDS011;30019;50.576;8.568;2023-04-21T10:16:09;21.12;;;15.05;;
44304;SDS011;30019;50.576;8.568;2023-04-21T10:18:36;23.40;;;15.88;;
44304;SDS011;30019;50.576;8.568;2023-04-21T10:23:38;24.30;;;15.37;;
44304;SDS011;30019;50.576;8.568;2023-04-21T10:31:16;20.95;;;14.48;;
44304;SDS011;30019;50.576;8.568;2023-04-21T10:34:10;21.00;;;14.30;;
44304;SDS011;30019;50.576;8.568;2023-04-21T11:14:22;16.67;;;10.50;;
44304;SDS011;30019;50.576;8.568;2023-04-21T11:19:14;13.93;;;10.77;;
44304;SDS011;30019;50.576;8.568;2023-04-21T11:32:44;13.53;;;10.07;;
44304;SDS011;30019;50.576;8.568;2023-04-21T11:35:11;14.95;;;10.23;;
44304;SDS011;30019;50.576;8.568;2023-04-21T11:37:36;13.13;;;10.18;;
44304;SDS011;30019;50.576;8.568;2023-04-21T11:40:02;12.68;;;10.02;;
44304;SDS011;30019;50.576;8.568;2023-04-21T11:44:55;13.20;;;10.00;;
44304;SDS011;30019;50.576;8.568;2023-04-21T11:49:51;11.18;;;9.10;;
44304;SDS011;30019;50.576;8.568;2023-04-21T11:57:35;12.68;;;9.80;;
44304;SDS011;30019;50.576;8.568;2023-04-21T12:00:04;15.40;;;10.20;;
44304;SDS011;30019;50.576;8.568;2023-04-21T12:05:10;14.02;;;9.93;;
44304;SDS011;30019;50.576;8.568;2023-04-21T12:07:43;13.15;;;10.15;;
44304;SDS011;30019;50.576;8.568;2023-04-21T12:10:11;13.02;;;10.38;;
44304;SDS011;30019;50.576;8.568;2023-04-21T12:15:07;13.95;;;9.90;;
44304;SDS011;30019;50.576;8.568;2023-04-21T12:24:55;13.23;;;9.70;;
44304;SDS011;30019;50.576;8.568;2023-04-21T12:27:21;13.57;;;9.97;;
44304;SDS011;30019;50.576;8.568;2023-04-21T12:29:47;14.77;;;10.23;;
44304;SDS011;30019;50.576;8.568;2023-04-21T12:34:39;14.05;;;9.95;;
44304;SDS011;30019;50.576;8.568;2023-04-21T12:37:04;11.45;;;9.48;;
44304;SDS011;30019;50.576;8.568;2023-04-21T12:49:13;17.27;;;9.95;;
44304;SDS011;30019;50.576;8.568;2023-04-21T12:56:30;14.18;;;9.70;;
44304;SDS011;30019;50.576;8.568;2023-04-21T13:30:31;14.37;;;8.93;;
44304;SDS011;30019;50.576;8.568;2023-04-21T13:45:05;10.77;;;7.67;;
44304;SDS011;30019;50.576;8.568;2023-04-21T13:49:57;10.48;;;8.23;;
44304;SDS011;30019;50.576;8.568;2023-04-21T13:52:24;11.07;;;8.10;;
44304;SDS011;30019;50.576;8.568;2023-04-21T13:54:51;11.75;;;8.40;;
44304;SDS011;30019;50.576;8.568;2023-04-21T14:11:51;12.50;;;7.05;;
44304;SDS011;30019;50.576;8.568;2023-04-21T14:19:08;8.45;;;6.95;;
44304;SDS011;30019;50.576;8.568;2023-04-21T14:21:34;7.95;;;7.15;;
44304;SDS011;30019;50.576;8.568;2023-04-21T14:24:00;10.65;;;6.95;;
44304;SDS011;30019;50.576;8.568;2023-04-21T14:28:51;24.80;;;18.85;;
44304;SDS011;30019;50.576;8.568;2023-04-21T14:31:16;8.33;;;6.93;;
44304;SDS011;30019;50.576;8.568;2023-04-21T15:02:49;6.50;;;5.70;;
44304;SDS011;30019;50.576;8.568;2023-04-21T15:07:42;7.68;;;6.40;;
44304;SDS011;30019;50.576;8.568;2023-04-21T15:10:08;9.93;;;6.72;;
44304;SDS011;30019;50.576;8.568;2023-04-21T15:12:35;6.67;;;5.77;;
44304;SDS011;30019;50.576;8.568;2023-04-21T15:15:00;8.70;;;5.80;;
44304;SDS011;30019;50.576;8.568;2023-04-21T15:17:26;8.13;;;6.37;;
44304;SDS011;30019;50.576;8.568;2023-04-21T15:19:51;7.40;;;5.60;;
44304;SDS011;30019;50.576;8.568;2023-04-21T15:34:26;6.70;;;5.80;;
44304;SDS011;30019;50.576;8.568;2023-04-21T15:44:08;6.00;;;5.40;;
44304;SDS011;30019;50.576;8.568;2023-04-21T15:46:35;6.90;;;6.10;;
44304;SDS011;30019;50.576;8.568;2023-04-21T16:10:50;8.07;;;5.20;;
44304;SDS011;30019;50.576;8.568;2023-04-21T16:13:16;6.00;;;5.40;;
44304;SDS011;30019;50.576;8.568;2023-04-21T17:26:12;6.53;;;5.40;;
44304;SDS011;30019;50.576;8.568;2023-04-21T17:28:38;6.22;;;5.35;;
44304;SDS011;30019;50.576;8.568;2023-04-21T17:52:55;7.95;;;5.60;;
44304;SDS011;30019;50.576;8.568;2023-04-21T17:57:47;7.62;;;5.93;;
44304;SDS011;30019;50.576;8.568;2023-04-21T18:44:12;7.37;;;5.93;;
44304;SDS011;30019;50.576;8.568;2023-04-21T19:10:55;9.00;;;7.05;;
44304;SDS011;30019;50.576;8.568;2023-04-21T19:20:37;13.38;;;8.35;;
44304;SDS011;30019;50.576;8.568;2023-04-21T19:23:03;10.88;;;8.45;;
44304;SDS011;30019;50.576;8.568;2023-04-21T19:25:29;13.15;;;8.68;;
44304;SDS011;30019;50.576;8.568;2023-04-21T19:27:55;12.60;;;7.40;;
44304;SDS011;30019;50.576;8.568;2023-04-21T19:30:21;9.50;;;7.00;;
44304;SDS011;30019;50.576;8.568;2023-04-21T19:32:47;8.23;;;6.57;;
44304;SDS011;30019;50.576;8.568;2023-04-21T19:35:12;11.23;;;7.30;;
44304;SDS011;30019;50.576;8.568;2023-04-21T19:37:38;9.10;;;7.43;;
44304;SDS011;30019;50.576;8.568;2023-04-21T19:40:04;10.55;;;7.95;;
44304;SDS011;30019;50.576;8.568;2023-04-21T19:42:30;29.83;;;17.67;;
44304;SDS011;30019;50.576;8.568;2023-04-21T19:44:55;16.60;;;11.60;;
44304;SDS011;30019;50.576;8.568;2023-04-21T19:47:21;12.32;;;7.97;;
44304;SDS011;30019;50.576;8.568;2023-04-21T19:49:47;11.88;;;8.25;;
44304;SDS011;30019;50.576;8.568;2023-04-21T19:52:13;9.63;;;7.62;;
44304;SDS011;30019;50.576;8.568;2023-04-21T19:54:38;11.27;;;7.97;;
44304;SDS011;30019;50.576;8.568;2023-04-21T19:57:04;12.90;;;8.75;;
44304;SDS011;30019;50.576;8.568;2023-04-21T19:59:29;12.85;;;8.98;;
44304;SDS011;30019;50.576;8.568;2023-04-21T20:01:57;11.00;;;7.85;;
44304;SDS011;30019;50.576;8.568;2023-04-21T20:04:23;12.15;;;9.20;;
44304;SDS011;30019;50.576;8.568;2023-04-21T20:06:49;13.02;;;8.60;;
44304;SDS011;30019;50.576;8.568;2023-04-21T20:09:15;13.13;;;8.83;;
44304;SDS011;30019;50.576;8.568;2023-04-21T20:11:41;14.07;;;9.23;;
44304;SDS011;30019;50.576;8.568;2023-04-21T20:14:07;11.80;;;9.05;;
44304;SDS011;30019;50.576;8.568;2023-04-21T20:16:32;11.85;;;8.77;;
44304;SDS011;30019;50.576;8.568;2023-04-21T20:18:58;12.30;;;9.05;;
44304;SDS011;30019;50.576;8.568;2023-04-21T20:21:24;11.77;;;8.52;;
44304;SDS011;30019;50.576;8.568;2023-04-21T20:23:50;12.05;;;8.18;;
44304;SDS011;30019;50.576;8.568;2023-04-21T20:26:15;10.45;;;8.30;;
44304;SDS011;30019;50.576;8.568;2023-04-21T20:28:41;11.10;;;7.90;;
44304;SDS011;30019;50.576;8.568;2023-04-21T20:31:07;10.05;;;7.80;;
44304;SDS011;30019;50.576;8.568;2023-04-21T20:48:17;12.75;;;8.52;;
44304;SDS011;30019;50.576;8.568;2023-04-21T20:58:00;14.20;;;9.15;;
44304;SDS011;30019;50.576;8.568;2023-04-21T21:00:26;10.63;;;8.30;;
44304;SDS011;30019;50.576;8.568;2023-04-21T21:02:51;13.07;;;9.65;;
44304;SDS011;30019;50.576;8.568;2023-04-21T22:30:18;14.60;;;10.23;;
44304;SDS011;30019;50.576;8.568;2023-04-21T22:32:44;15.43;;;10.75;;
